createdAt,value
2024-01-05T00:00:29.138Z,61.20
2024-01-05T00:10:52.872Z,61.23
2024-01-05T00:20:56.668Z,61.06
2024-01-05T00:31:00.814Z,60.75
2024-01-05T00:41:06.114Z,60.50
2024-01-05T00:51:09.895Z,60.09
2024-01-05T01:01:13.848Z,59.65
2024-01-05T01:11:20.402Z,59.58
2024-01-05T01:21:24.153Z,59.95
2024-01-05T01:31:30.525Z,60.16
2024-01-05T01:41:34.860Z,60.36
2024-01-05T01:51:39.349Z,60.42
2024-01-05T02:01:47.176Z,60.09
2024-01-05T02:11:51.042Z,60.70
2024-01-05T02:21:57.944Z,61.08
2024-01-05T02:32:01.646Z,61.95
2024-01-05T02:42:06.549Z,62.48
2024-01-05T02:52:12.465Z,62.96
2024-01-05T03:02:16.745Z,63.45
2024-01-05T03:12:22.178Z,64.10
2024-01-05T03:22:28.665Z,64.57
2024-01-05T03:32:34.735Z,64.55
2024-01-05T03:42:39.566Z,64.94
2024-01-05T03:52:43.346Z,65.02
2024-01-05T04:02:48.198Z,65.30
2024-01-05T04:12:52.202Z,65.11
2024-01-05T04:22:56.068Z,64.54
2024-01-05T04:33:00.980Z,64.16
2024-01-05T04:43:05.853Z,63.86
2024-01-05T04:53:09.580Z,63.51
2024-01-05T05:03:17.419Z,62.77
2024-01-05T05:13:21.416Z,62.12
2024-01-05T05:23:26.172Z,62.50
2024-01-05T05:33:30.691Z,62.46
2024-01-05T05:43:34.743Z,62.89
2024-01-05T05:53:39.083Z,63.15
2024-01-05T06:03:46.718Z,62.94
2024-01-05T06:13:50.733Z,63.12
2024-01-05T06:23:55.407Z,63.13
2024-01-05T06:34:02.963Z,63.15
2024-01-05T06:44:09.515Z,63.33
2024-01-05T06:54:14.947Z,63.37
2024-01-05T07:04:18.897Z,63.67
2024-01-05T07:14:24.884Z,64.09
2024-01-05T07:24:28.795Z,64.03
2024-01-05T07:34:33.518Z,63.73
2024-01-05T07:44:37.605Z,63.53
2024-01-05T07:54:42.248Z,63.15
2024-01-05T08:04:47.085Z,62.82
2024-01-05T08:14:51.704Z,62.43
2024-01-05T08:24:55.982Z,61.75
2024-01-05T08:34:59.877Z,61.53
2024-01-05T08:45:06.262Z,61.05
2024-01-05T08:55:10.428Z,60.55
2024-01-05T09:05:14.750Z,59.92
2024-01-05T09:15:19.540Z,58.66
2024-01-05T09:25:23.812Z,57.50
2024-01-05T09:35:27.638Z,57.50
2024-01-05T09:45:33.818Z,57.83
2024-01-05T09:55:37.671Z,57.62
2024-01-05T10:05:41.614Z,57.74
2024-01-05T10:16:04.315Z,57.77
2024-01-05T10:26:17.319Z,57.62
2024-01-05T10:36:25.908Z,57.24
2024-01-05T10:46:33.511Z,57.33
2024-01-05T10:56:43.202Z,56.53
2024-01-05T11:06:47.521Z,55.91
2024-01-05T11:16:57.002Z,55.82
2024-01-05T11:27:00.917Z,56.19
2024-01-05T11:37:09.530Z,56.44
2024-01-05T11:47:49.733Z,56.34
2024-01-05T11:57:53.696Z,56.27
2024-01-05T12:07:57.949Z,56.09
2024-01-05T12:18:16.572Z,55.95
2024-01-05T12:28:24.148Z,56.15
2024-01-05T12:38:30.168Z,55.99
2024-01-05T12:48:35.515Z,55.94
2024-01-05T12:58:44.098Z,55.32
2024-01-05T13:08:48.862Z,54.50
2024-01-05T13:18:52.774Z,54.79
2024-01-05T13:28:56.917Z,55.06
2024-01-05T13:39:02.345Z,55.14
2024-01-05T13:49:06.353Z,55.33
2024-01-05T13:59:10.825Z,55.19
2024-01-05T14:09:14.673Z,55.21
2024-01-05T14:19:19.153Z,55.10
2024-01-05T14:29:26.013Z,55.35
2024-01-05T14:39:31.163Z,55.50
2024-01-05T14:49:35.711Z,55.58
2024-01-05T14:59:39.821Z,56.11
2024-01-05T15:09:45.643Z,55.81
2024-01-05T15:19:51.907Z,56.10
2024-01-05T15:29:56.241Z,56.33
2024-01-05T15:40:00.454Z,56.50
2024-01-05T15:50:06.064Z,56.47
2024-01-05T16:00:10.664Z,56.71
2024-01-05T16:10:18.497Z,56.57
2024-01-05T16:20:22.635Z,56.84
2024-01-05T16:30:28.983Z,56.64
2024-01-05T16:40:32.880Z,56.36
2024-01-05T16:50:36.744Z,56.05
2024-01-05T17:00:40.889Z,56.17
2024-01-05T17:10:47.896Z,56.28
2024-01-05T17:20:55.274Z,56.50
2024-01-05T17:30:59.890Z,56.54
2024-01-05T17:41:04.147Z,56.74
2024-01-05T17:51:09.269Z,56.84
2024-01-05T18:01:14.224Z,56.54
2024-01-05T18:11:25.872Z,56.28
2024-01-05T18:21:29.691Z,55.92
2024-01-05T18:31:37.186Z,55.91
2024-01-05T18:41:41.894Z,55.78
2024-01-05T18:51:45.831Z,56.27
2024-01-05T19:01:49.829Z,56.40
2024-01-05T19:11:53.782Z,56.42
2024-01-05T19:21:59.887Z,56.55
2024-01-05T19:32:04.830Z,56.84
2024-01-05T19:42:08.844Z,57.22
2024-01-05T19:52:13.902Z,57.67
2024-01-05T20:02:18.411Z,57.53
2024-01-05T20:12:22.244Z,57.55
2024-01-05T20:22:26.484Z,57.41
2024-01-05T20:32:30.679Z,57.42
2024-01-05T20:42:34.625Z,57.28
2024-01-05T20:52:39.305Z,57.29
2024-01-05T21:02:43.681Z,57.11
2024-01-05T21:12:47.895Z,57.44
2024-01-05T21:22:54.479Z,57.38
2024-01-05T21:32:59.000Z,57.30
2024-01-05T21:43:03.522Z,57.06
2024-01-05T21:53:08.582Z,56.69
2024-01-05T22:03:13.784Z,56.61
2024-01-05T22:13:18.163Z,56.61
2024-01-05T22:23:22.500Z,56.71
2024-01-05T22:33:28.546Z,56.62
2024-01-05T22:43:32.450Z,56.68
2024-01-05T22:53:37.159Z,56.50
2024-01-05T23:03:42.882Z,56.30
2024-01-05T23:13:46.707Z,56.62
2024-01-05T23:23:51.965Z,56.35
2024-01-05T23:34:08.632Z,55.63
2024-01-05T23:44:19.978Z,55.89
2024-01-05T23:54:24.388Z,55.82
